sensor_id;sensor_type;location;lat;lon;timestamp;pressure;altitude;pressure_sealevel;temperature;humidity
63033;BME280;49121;38.932;-9.018;2023-02-18T00:01:46;111992.50;;;-145.11;49.80
63033;BME280;49121;38.932;-9.018;2023-02-18T00:03:57;111992.50;;;-145.11;50.28
63033;BME280;49121;38.932;-9.018;2023-02-18T00:05:58;111992.50;;;-145.11;50.73
63033;BME280;49121;38.932;-9.018;2023-02-18T00:07:58;111992.50;;;-145.11;50.59
63033;BME280;49121;38.932;-9.018;2023-02-18T00:09:59;111992.50;;;-145.11;50.93
63033;BME280;49121;38.932;-9.018;2023-02-18T00:11:59;111992.50;;;-145.11;51.01
63033;BME280;49121;38.932;-9.018;2023-02-18T00:14:01;111992.50;;;-145.11;50.95
63033;BME280;49121;38.932;-9.018;2023-02-18T00:16:04;111992.50;;;-145.11;50.84
63033;BME280;49121;38.932;-9.018;2023-02-18T00:18:06;111992.50;;;-145.11;51.10
63033;BME280;49121;38.932;-9.018;2023-02-18T00:20:07;111992.50;;;-145.11;51.48
63033;BME280;49121;38.932;-9.018;2023-02-18T00:22:08;111992.50;;;-145.11;51.41
63033;BME280;49121;38.932;-9.018;2023-02-18T00:24:08;111992.50;;;-145.11;51.44
63033;BME280;49121;38.932;-9.018;2023-02-18T00:26:13;111992.50;;;-145.11;51.61
63033;BME280;49121;38.932;-9.018;2023-02-18T00:28:14;111992.50;;;-145.11;51.95
63033;BME280;49121;38.932;-9.018;2023-02-18T00:30:15;111992.50;;;-145.11;51.82
63033;BME280;49121;38.932;-9.018;2023-02-18T00:32:15;111992.50;;;-145.11;51.42
63033;BME280;49121;38.932;-9.018;2023-02-18T00:34:16;111992.50;;;-145.11;51.86
63033;BME280;49121;38.932;-9.018;2023-02-18T00:36:18;111992.50;;;-145.11;51.67
63033;BME280;49121;38.932;-9.018;2023-02-18T00:38:19;111992.50;;;-145.11;51.65
63033;BME280;49121;38.932;-9.018;2023-02-18T00:45:21;111992.50;;;-145.11;52.38
63033;BME280;49121;38.932;-9.018;2023-02-18T00:47:22;111992.50;;;-145.11;52.19
63033;BME280;49121;38.932;-9.018;2023-02-18T00:49:23;111992.50;;;-145.11;52.28
63033;BME280;49121;38.932;-9.018;2023-02-18T00:51:24;111992.50;;;-145.11;52.46
63033;BME280;49121;38.932;-9.018;2023-02-18T00:53:26;111992.50;;;-145.11;52.47
63033;BME280;49121;38.932;-9.018;2023-02-18T00:55:27;111992.50;;;-145.11;52.66
63033;BME280;49121;38.932;-9.018;2023-02-18T00:57:27;111992.50;;;-145.11;52.72
63033;BME280;49121;38.932;-9.018;2023-02-18T01:02:13;111992.50;;;-145.11;52.74
63033;BME280;49121;38.932;-9.018;2023-02-18T01:04:32;111992.50;;;-145.11;52.77
63033;BME280;49121;38.932;-9.018;2023-02-18T01:06:32;111992.50;;;-145.11;52.80
63033;BME280;49121;38.932;-9.018;2023-02-18T01:08:33;111992.50;;;-145.11;52.85
63033;BME280;49121;38.932;-9.018;2023-02-18T01:10:35;111992.50;;;-145.11;52.40
63033;BME280;49121;38.932;-9.018;2023-02-18T01:12:38;111992.50;;;-145.11;52.60
63033;BME280;49121;38.932;-9.018;2023-02-18T01:14:39;111992.50;;;-145.11;52.76
63033;BME280;49121;38.932;-9.018;2023-02-18T01:16:46;111992.50;;;-145.11;52.84
63033;BME280;49121;38.932;-9.018;2023-02-18T01:18:46;111992.50;;;-145.11;53.13
63033;BME280;49121;38.932;-9.018;2023-02-18T01:20:47;111992.50;;;-145.11;52.73
63033;BME280;49121;38.932;-9.018;2023-02-18T01:22:49;111992.50;;;-145.11;52.79
63033;BME280;49121;38.932;-9.018;2023-02-18T01:24:49;111992.50;;;-145.11;52.72
63033;BME280;49121;38.932;-9.018;2023-02-18T01:26:50;111992.50;;;-145.11;52.70
63033;BME280;49121;38.932;-9.018;2023-02-18T01:28:51;111992.50;;;-145.11;52.76
63033;BME280;49121;38.932;-9.018;2023-02-18T01:31:11;111992.50;;;-145.11;52.71
63033;BME280;49121;38.932;-9.018;2023-02-18T01:33:12;111992.50;;;-145.11;52.80
63033;BME280;49121;38.932;-9.018;2023-02-18T01:35:14;111992.50;;;-145.11;52.78
63033;BME280;49121;38.932;-9.018;2023-02-18T01:37:14;111992.50;;;-145.11;52.26
63033;BME280;49121;38.932;-9.018;2023-02-18T01:39:15;111992.50;;;-145.11;52.10
63033;BME280;49121;38.932;-9.018;2023-02-18T01:41:16;111992.50;;;-145.11;51.79
63033;BME280;49121;38.932;-9.018;2023-02-18T01:43:23;111992.50;;;-145.11;51.81
63033;BME280;49121;38.932;-9.018;2023-02-18T01:47:33;111992.50;;;-145.11;52.51
63033;BME280;49121;38.932;-9.018;2023-02-18T01:49:35;111992.50;;;-145.11;52.01
63033;BME280;49121;38.932;-9.018;2023-02-18T01:51:49;111992.50;;;-145.11;51.47
63033;BME280;49121;38.932;-9.018;2023-02-18T01:54:12;111992.50;;;-145.11;50.69
63033;BME280;49121;38.932;-9.018;2023-02-18T01:56:28;111992.50;;;-145.11;50.48
63033;BME280;49121;38.932;-9.018;2023-02-18T01:58:30;111992.50;;;-145.11;49.71
63033;BME280;49121;38.932;-9.018;2023-02-18T02:00:32;111992.50;;;-145.11;48.26
63033;BME280;49121;38.932;-9.018;2023-02-18T02:02:40;111992.50;;;-145.11;48.04
63033;BME280;49121;38.932;-9.018;2023-02-18T02:04:42;111992.50;;;-145.11;47.52
63033;BME280;49121;38.932;-9.018;2023-02-18T02:09:40;111992.50;;;-145.11;47.96
63033;BME280;49121;38.932;-9.018;2023-02-18T02:16:39;111992.50;;;-145.11;47.07
63033;BME280;49121;38.932;-9.018;2023-02-18T02:35:20;111992.50;;;-145.11;46.75
63033;BME280;49121;38.932;-9.018;2023-02-18T02:38:06;111992.50;;;-145.11;46.80
63033;BME280;49121;38.932;-9.018;2023-02-18T02:44:31;111992.50;;;-145.11;49.31
63033;BME280;49121;38.932;-9.018;2023-02-18T02:46:38;111992.50;;;-145.11;48.96
63033;BME280;49121;38.932;-9.018;2023-02-18T02:49:02;111992.50;;;-145.11;49.28
63033;BME280;49121;38.932;-9.018;2023-02-18T02:51:12;111992.50;;;-145.11;49.30
63033;BME280;49121;38.932;-9.018;2023-02-18T02:53:25;111992.50;;;-145.11;49.74
63033;BME280;49121;38.932;-9.018;2023-02-18T02:55:27;111992.50;;;-145.11;50.17
63033;BME280;49121;38.932;-9.018;2023-02-18T02:59:46;111992.50;;;-145.11;50.22
63033;BME280;49121;38.932;-9.018;2023-02-18T03:11:13;111992.50;;;-145.11;52.31
63033;BME280;49121;38.932;-9.018;2023-02-18T03:13:36;111992.50;;;-145.11;52.87
63033;BME280;49121;38.932;-9.018;2023-02-18T03:18:48;111992.50;;;-145.11;53.33
63033;BME280;49121;38.932;-9.018;2023-02-18T03:20:55;111992.50;;;-145.11;53.84
63033;BME280;49121;38.932;-9.018;2023-02-18T03:22:59;111992.50;;;-145.11;53.53
63033;BME280;49121;38.932;-9.018;2023-02-18T03:25:02;111992.50;;;-145.11;53.59
63033;BME280;49121;38.932;-9.018;2023-02-18T03:29:27;111992.50;;;-145.11;54.04
63033;BME280;49121;38.932;-9.018;2023-02-18T03:31:29;111992.50;;;-145.11;54.25
63033;BME280;49121;38.932;-9.018;2023-02-18T03:33:58;111992.50;;;-145.11;53.90
63033;BME280;49121;38.932;-9.018;2023-02-18T03:36:00;111992.50;;;-145.11;53.99
63033;BME280;49121;38.932;-9.018;2023-02-18T03:38:20;111992.50;;;-145.11;53.77
63033;BME280;49121;38.932;-9.018;2023-02-18T03:40:23;111992.50;;;-145.11;52.91
63033;BME280;49121;38.932;-9.018;2023-02-18T03:42:27;111992.50;;;-145.11;52.58
63033;BME280;49121;38.932;-9.018;2023-02-18T03:44:29;111992.50;;;-145.11;52.44
63033;BME280;49121;38.932;-9.018;2023-02-18T03:46:31;111992.50;;;-145.11;52.71
63033;BME280;49121;38.932;-9.018;2023-02-18T03:48:32;111992.50;;;-145.11;52.66
63033;BME280;49121;38.932;-9.018;2023-02-18T03:50:33;111992.50;;;-145.11;52.66
63033;BME280;49121;38.932;-9.018;2023-02-18T03:52:33;111992.50;;;-145.11;52.57
63033;BME280;49121;38.932;-9.018;2023-02-18T03:54:36;111992.50;;;-145.11;52.00
63033;BME280;49121;38.932;-9.018;2023-02-18T03:56:36;111992.50;;;-145.11;52.10
63033;BME280;49121;38.932;-9.018;2023-02-18T03:58:37;111992.50;;;-145.11;51.82
63033;BME280;49121;38.932;-9.018;2023-02-18T04:00:56;111992.50;;;-145.11;52.40
63033;BME280;49121;38.932;-9.018;2023-02-18T04:02:57;111992.50;;;-145.11;52.01
63033;BME280;49121;38.932;-9.018;2023-02-18T04:04:59;111992.50;;;-145.11;51.01
63033;BME280;49121;38.932;-9.018;2023-02-18T04:06:59;111992.50;;;-145.11;50.54
63033;BME280;49121;38.932;-9.018;2023-02-18T04:09:00;111992.50;;;-145.11;51.24
63033;BME280;49121;38.932;-9.018;2023-02-18T04:11:02;111992.50;;;-145.11;51.47
63033;BME280;49121;38.932;-9.018;2023-02-18T04:13:04;111992.50;;;-145.11;51.79
63033;BME280;49121;38.932;-9.018;2023-02-18T04:15:05;111992.50;;;-145.11;52.15
63033;BME280;49121;38.932;-9.018;2023-02-18T04:17:10;111992.50;;;-145.11;52.36
63033;BME280;49121;38.932;-9.018;2023-02-18T04:19:11;111992.50;;;-145.11;51.20
63033;BME280;49121;38.932;-9.018;2023-02-18T04:21:11;111992.50;;;-145.11;51.62
63033;BME280;49121;38.932;-9.018;2023-02-18T04:23:12;111992.50;;;-145.11;52.27
63033;BME280;49121;38.932;-9.018;2023-02-18T04:25:13;111992.50;;;-145.11;52.04
63033;BME280;49121;38.932;-9.018;2023-02-18T04:27:13;111992.50;;;-145.11;52.49
63033;BME280;49121;38.932;-9.018;2023-02-18T04:32:10;111992.50;;;-145.11;52.46
63033;BME280;49121;38.932;-9.018;2023-02-18T04:34:15;111992.50;;;-145.11;52.06
63033;BME280;49121;38.932;-9.018;2023-02-18T04:36:16;111992.50;;;-145.11;52.83
63033;BME280;49121;38.932;-9.018;2023-02-18T04:38:16;111992.50;;;-145.11;53.50
63033;BME280;49121;38.932;-9.018;2023-02-18T04:40:17;111992.50;;;-145.11;54.13
63033;BME280;49121;38.932;-9.018;2023-02-18T04:42:18;111992.50;;;-145.11;53.83
63033;BME280;49121;38.932;-9.018;2023-02-18T04:44:18;111992.50;;;-145.11;53.98
63033;BME280;49121;38.932;-9.018;2023-02-18T04:46:19;111992.50;;;-145.11;53.96
63033;BME280;49121;38.932;-9.018;2023-02-18T04:48:19;111992.50;;;-145.11;54.24
63033;BME280;49121;38.932;-9.018;2023-02-18T04:50:20;111992.50;;;-145.11;54.91
63033;BME280;49121;38.932;-9.018;2023-02-18T04:54:59;111992.50;;;-145.11;54.61
63033;BME280;49121;38.932;-9.018;2023-02-18T04:57:00;111992.50;;;-145.11;54.18
63033;BME280;49121;38.932;-9.018;2023-02-18T04:59:00;111992.50;;;-145.11;54.28
63033;BME280;49121;38.932;-9.018;2023-02-18T05:01:02;111992.50;;;-145.11;54.49
63033;BME280;49121;38.932;-9.018;2023-02-18T05:03:02;111992.50;;;-145.11;54.38
63033;BME280;49121;38.932;-9.018;2023-02-18T05:05:06;111992.50;;;-145.11;54.59
63033;BME280;49121;38.932;-9.018;2023-02-18T05:07:07;111992.50;;;-145.11;54.61
63033;BME280;49121;38.932;-9.018;2023-02-18T05:09:07;111992.50;;;-145.11;54.74
63033;BME280;49121;38.932;-9.018;2023-02-18T05:16:25;111992.50;;;-145.11;54.41
63033;BME280;49121;38.932;-9.018;2023-02-18T05:18:25;111992.50;;;-145.11;54.31
63033;BME280;49121;38.932;-9.018;2023-02-18T05:20:30;111992.50;;;-145.11;53.80
63033;BME280;49121;38.932;-9.018;2023-02-18T05:22:30;111992.50;;;-145.11;53.89
63033;BME280;49121;38.932;-9.018;2023-02-18T05:24:31;111992.50;;;-145.11;53.54
63033;BME280;49121;38.932;-9.018;2023-02-18T05:26:31;111992.50;;;-145.11;53.45
63033;BME280;49121;38.932;-9.018;2023-02-18T05:28:32;111992.50;;;-145.11;53.27
63033;BME280;49121;38.932;-9.018;2023-02-18T05:30:33;111992.50;;;-145.11;51.80
63033;BME280;49121;38.932;-9.018;2023-02-18T05:32:34;111992.50;;;-145.11;51.67
63033;BME280;49121;38.932;-9.018;2023-02-18T05:34:35;111992.50;;;-145.11;50.58
63033;BME280;49121;38.932;-9.018;2023-02-18T05:36:36;111992.50;;;-145.11;50.42
63033;BME280;49121;38.932;-9.018;2023-02-18T05:38:37;111992.50;;;-145.11;50.08
63033;BME280;49121;38.932;-9.018;2023-02-18T05:40:38;111992.50;;;-145.11;48.33
63033;BME280;49121;38.932;-9.018;2023-02-18T05:42:38;111992.50;;;-145.11;48.83
63033;BME280;49121;38.932;-9.018;2023-02-18T05:44:39;111992.50;;;-145.11;49.32
63033;BME280;49121;38.932;-9.018;2023-02-18T05:46:39;111992.50;;;-145.11;49.10
63033;BME280;49121;38.932;-9.018;2023-02-18T05:48:40;111992.50;;;-145.11;47.69
63033;BME280;49121;38.932;-9.018;2023-02-18T05:50:40;111992.50;;;-145.11;47.72
63033;BME280;49121;38.932;-9.018;2023-02-18T05:52:41;111992.50;;;-145.11;48.49
63033;BME280;49121;38.932;-9.018;2023-02-18T05:54:42;111992.50;;;-145.11;48.90
63033;BME280;49121;38.932;-9.018;2023-02-18T05:56:43;111992.50;;;-145.11;49.54
63033;BME280;49121;38.932;-9.018;2023-02-18T05:58:44;111992.50;;;-145.11;50.28
63033;BME280;49121;38.932;-9.018;2023-02-18T06:00:46;111992.50;;;-145.11;50.08
63033;BME280;49121;38.932;-9.018;2023-02-18T06:02:50;111992.50;;;-145.11;49.39
63033;BME280;49121;38.932;-9.018;2023-02-18T06:04:50;111992.50;;;-145.11;48.38
63033;BME280;49121;38.932;-9.018;2023-02-18T06:06:51;111992.50;;;-145.11;48.52
63033;BME280;49121;38.932;-9.018;2023-02-18T06:08:51;111992.50;;;-145.11;48.75
63033;BME280;49121;38.932;-9.018;2023-02-18T06:10:52;111992.50;;;-145.11;48.47
63033;BME280;49121;38.932;-9.018;2023-02-18T06:12:52;111992.50;;;-145.11;48.43
63033;BME280;49121;38.932;-9.018;2023-02-18T06:14:53;111992.50;;;-145.11;48.71
63033;BME280;49121;38.932;-9.018;2023-02-18T06:16:54;111992.50;;;-145.11;49.12
63033;BME280;49121;38.932;-9.018;2023-02-18T06:18:54;111992.50;;;-145.11;49.49
63033;BME280;49121;38.932;-9.018;2023-02-18T06:21:14;111992.50;;;-145.11;48.82
63033;BME280;49121;38.932;-9.018;2023-02-18T06:23:14;111992.50;;;-145.11;47.64
63033;BME280;49121;38.932;-9.018;2023-02-18T06:25:15;111992.50;;;-145.11;47.88
63033;BME280;49121;38.932;-9.018;2023-02-18T06:27:16;111992.50;;;-145.11;46.73
63033;BME280;49121;38.932;-9.018;2023-02-18T06:29:16;111992.50;;;-145.11;46.53
63033;BME280;49121;38.932;-9.018;2023-02-18T06:31:17;111992.50;;;-145.11;47.59
63033;BME280;49121;38.932;-9.018;2023-02-18T06:36:17;111992.50;;;-145.11;48.07
63033;BME280;49121;38.932;-9.018;2023-02-18T06:38:18;111992.50;;;-145.11;47.61
63033;BME280;49121;38.932;-9.018;2023-02-18T06:40:38;111992.50;;;-145.11;47.91
63033;BME280;49121;38.932;-9.018;2023-02-18T06:42:44;111992.50;;;-145.11;48.37
63033;BME280;49121;38.932;-9.018;2023-02-18T06:44:46;111992.50;;;-145.11;49.31
63033;BME280;49121;38.932;-9.018;2023-02-18T06:46:46;111992.50;;;-145.11;49.13
63033;BME280;49121;38.932;-9.018;2023-02-18T06:49:05;111992.50;;;-145.11;48.09
63033;BME280;49121;38.932;-9.018;2023-02-18T06:51:06;111992.50;;;-145.11;47.79
63033;BME280;49121;38.932;-9.018;2023-02-18T06:53:07;111992.50;;;-145.11;46.91
63033;BME280;49121;38.932;-9.018;2023-02-18T06:55:07;111992.50;;;-145.11;46.16
63033;BME280;49121;38.932;-9.018;2023-02-18T06:57:11;111992.50;;;-145.11;46.40
63033;BME280;49121;38.932;-9.018;2023-02-18T06:59:11;111992.50;;;-145.11;47.13
63033;BME280;49121;38.932;-9.018;2023-02-18T07:01:12;111992.50;;;-145.11;47.95
63033;BME280;49121;38.932;-9.018;2023-02-18T07:03:13;111992.50;;;-145.11;48.53
63033;BME280;49121;38.932;-9.018;2023-02-18T07:05:15;111992.50;;;-145.11;47.67
63033;BME280;49121;38.932;-9.018;2023-02-18T07:07:15;111992.50;;;-145.11;47.63
63033;BME280;49121;38.932;-9.018;2023-02-18T07:09:16;111992.50;;;-145.11;46.87
63033;BME280;49121;38.932;-9.018;2023-02-18T07:11:16;111992.50;;;-145.11;47.97
63033;BME280;49121;38.932;-9.018;2023-02-18T07:13:17;111992.50;;;-145.11;48.23
63033;BME280;49121;38.932;-9.018;2023-02-18T07:15:17;111992.50;;;-145.11;48.52
63033;BME280;49121;38.932;-9.018;2023-02-18T07:17:23;111992.50;;;-145.11;48.75
63033;BME280;49121;38.932;-9.018;2023-02-18T07:19:24;111992.50;;;-145.11;49.34
63033;BME280;49121;38.932;-9.018;2023-02-18T07:21:25;111992.50;;;-145.11;47.81
63033;BME280;49121;38.932;-9.018;2023-02-18T07:23:25;111992.50;;;-145.11;48.52
63033;BME280;49121;38.932;-9.018;2023-02-18T07:25:28;111992.50;;;-145.11;49.14
63033;BME280;49121;38.932;-9.018;2023-02-18T07:27:28;111992.50;;;-145.11;49.77
63033;BME280;49121;38.932;-9.018;2023-02-18T07:29:29;111992.50;;;-145.11;50.37
63033;BME280;49121;38.932;-9.018;2023-02-18T07:31:30;111992.50;;;-145.11;50.73
63033;BME280;49121;38.932;-9.018;2023-02-18T07:33:30;111992.50;;;-145.11;49.54
63033;BME280;49121;38.932;-9.018;2023-02-18T07:35:31;111992.50;;;-145.11;49.15
63033;BME280;49121;38.932;-9.018;2023-02-18T07:37:31;111992.50;;;-145.11;47.84
63033;BME280;49121;38.932;-9.018;2023-02-18T07:39:32;111992.50;;;-145.11;48.46
63033;BME280;49121;38.932;-9.018;2023-02-18T07:41:33;111992.50;;;-145.11;48.10
63033;BME280;49121;38.932;-9.018;2023-02-18T07:43:34;111992.50;;;-145.11;48.89
63033;BME280;49121;38.932;-9.018;2023-02-18T07:45:36;111992.50;;;-145.11;48.36
63033;BME280;49121;38.932;-9.018;2023-02-18T07:47:37;111992.50;;;-145.11;46.73
63033;BME280;49121;38.932;-9.018;2023-02-18T07:49:37;111992.50;;;-145.11;47.64
63033;BME280;49121;38.932;-9.018;2023-02-18T07:51:38;111992.50;;;-145.11;47.95
63033;BME280;49121;38.932;-9.018;2023-02-18T07:53:39;111992.50;;;-145.11;48.41
63033;BME280;49121;38.932;-9.018;2023-02-18T07:55:40;111992.50;;;-145.11;49.41
63033;BME280;49121;38.932;-9.018;2023-02-18T07:57:49;111992.50;;;-145.11;49.40
63033;BME280;49121;38.932;-9.018;2023-02-18T08:00:02;111992.50;;;-145.11;49.61
63033;BME280;49121;38.932;-9.018;2023-02-18T08:05:09;111992.50;;;-145.11;47.64
63033;BME280;49121;38.932;-9.018;2023-02-18T08:07:13;111992.50;;;-145.11;48.26
63033;BME280;49121;38.932;-9.018;2023-02-18T08:09:14;111992.50;;;-145.11;48.75
63033;BME280;49121;38.932;-9.018;2023-02-18T08:14:12;111992.50;;;-145.11;48.64
63033;BME280;49121;38.932;-9.018;2023-02-18T08:16:14;111992.50;;;-145.11;48.50
63033;BME280;49121;38.932;-9.018;2023-02-18T08:18:17;111992.50;;;-145.11;48.11
63033;BME280;49121;38.932;-9.018;2023-02-18T08:20:19;111992.50;;;-145.11;47.64
63033;BME280;49121;38.932;-9.018;2023-02-18T08:22:19;111992.50;;;-145.11;47.96
63033;BME280;49121;38.932;-9.018;2023-02-18T08:24:20;111992.50;;;-145.11;48.43
63033;BME280;49121;38.932;-9.018;2023-02-18T08:26:20;111992.50;;;-145.11;48.63
63033;BME280;49121;38.932;-9.018;2023-02-18T08:28:22;111992.50;;;-145.11;48.26
63033;BME280;49121;38.932;-9.018;2023-02-18T08:30:23;111992.50;;;-145.11;47.86
63033;BME280;49121;38.932;-9.018;2023-02-18T08:32:27;111992.50;;;-145.11;46.93
63033;BME280;49121;38.932;-9.018;2023-02-18T08:34:28;111992.50;;;-145.11;47.07
63033;BME280;49121;38.932;-9.018;2023-02-18T08:36:29;111992.50;;;-145.11;47.02
63033;BME280;49121;38.932;-9.018;2023-02-18T08:38:30;111992.50;;;-145.11;46.38
63033;BME280;49121;38.932;-9.018;2023-02-18T08:42:52;111992.50;;;-145.11;47.25
63033;BME280;49121;38.932;-9.018;2023-02-18T08:44:53;111992.50;;;-145.11;46.44
63033;BME280;49121;38.932;-9.018;2023-02-18T08:46:53;111992.50;;;-145.11;46.52
63033;BME280;49121;38.932;-9.018;2023-02-18T08:48:54;111992.50;;;-145.11;45.68
63033;BME280;49121;38.932;-9.018;2023-02-18T08:50:55;111992.50;;;-145.11;45.82
63033;BME280;49121;38.932;-9.018;2023-02-18T08:55:15;111992.50;;;-145.11;44.42
63033;BME280;49121;38.932;-9.018;2023-02-18T08:57:15;111992.50;;;-145.11;44.80
63033;BME280;49121;38.932;-9.018;2023-02-18T08:59:16;111992.50;;;-145.11;44.58
63033;BME280;49121;38.932;-9.018;2023-02-18T09:01:16;111992.50;;;-145.11;44.08
63033;BME280;49121;38.932;-9.018;2023-02-18T09:03:24;111992.50;;;-145.11;44.06
63033;BME280;49121;38.932;-9.018;2023-02-18T09:05:57;111992.50;;;-145.11;44.07
63033;BME280;49121;38.932;-9.018;2023-02-18T09:07:58;111992.50;;;-145.11;43.98
63033;BME280;49121;38.932;-9.018;2023-02-18T09:09:59;111992.50;;;-145.11;43.53
63033;BME280;49121;38.932;-9.018;2023-02-18T09:12:00;111992.50;;;-145.11;43.45
63033;BME280;49121;38.932;-9.018;2023-02-18T09:14:01;111992.50;;;-145.11;43.62
63033;BME280;49121;38.932;-9.018;2023-02-18T09:16:07;111992.50;;;-145.11;43.28
63033;BME280;49121;38.932;-9.018;2023-02-18T09:18:08;111992.50;;;-145.11;43.45
63033;BME280;49121;38.932;-9.018;2023-02-18T09:20:09;111992.50;;;-145.11;42.99
63033;BME280;49121;38.932;-9.018;2023-02-18T09:22:09;111992.50;;;-145.11;42.48
63033;BME280;49121;38.932;-9.018;2023-02-18T09:27:07;111992.50;;;-145.11;42.34
63033;BME280;49121;38.932;-9.018;2023-02-18T09:29:08;111992.50;;;-145.11;42.51
63033;BME280;49121;38.932;-9.018;2023-02-18T09:31:14;111992.50;;;-145.11;42.02
63033;BME280;49121;38.932;-9.018;2023-02-18T09:33:19;111992.50;;;-145.11;42.04
63033;BME280;49121;38.932;-9.018;2023-02-18T09:35:20;111992.50;;;-145.11;42.08
63033;BME280;49121;38.932;-9.018;2023-02-18T09:37:21;111992.50;;;-145.11;40.92
63033;BME280;49121;38.932;-9.018;2023-02-18T09:39:21;111992.50;;;-145.11;40.72
63033;BME280;49121;38.932;-9.018;2023-02-18T09:41:33;111992.50;;;-145.11;41.33
63033;BME280;49121;38.932;-9.018;2023-02-18T09:48:43;111992.50;;;-145.11;40.81
63033;BME280;49121;38.932;-9.018;2023-02-18T09:50:47;111992.50;;;-145.11;41.32
63033;BME280;49121;38.932;-9.018;2023-02-18T09:52:51;111992.50;;;-145.11;40.58
63033;BME280;49121;38.932;-9.018;2023-02-18T09:54:52;111992.50;;;-145.11;41.04
63033;BME280;49121;38.932;-9.018;2023-02-18T09:56:53;111992.50;;;-145.11;40.70
63033;BME280;49121;38.932;-9.018;2023-02-18T09:58:56;111992.50;;;-145.11;40.33
63033;BME280;49121;38.932;-9.018;2023-02-18T10:03:19;111992.50;;;-145.11;40.05
63033;BME280;49121;38.932;-9.018;2023-02-18T10:05:22;111992.50;;;-145.11;41.19
63033;BME280;49121;38.932;-9.018;2023-02-18T10:07:27;111992.50;;;-145.11;40.48
63033;BME280;49121;38.932;-9.018;2023-02-18T10:09:35;111992.50;;;-145.11;40.33
63033;BME280;49121;38.932;-9.018;2023-02-18T10:11:42;111992.50;;;-145.11;40.37
63033;BME280;49121;38.932;-9.018;2023-02-18T10:13:43;111992.50;;;-145.11;39.71
63033;BME280;49121;38.932;-9.018;2023-02-18T10:15:44;111992.50;;;-145.11;40.10
63033;BME280;49121;38.932;-9.018;2023-02-18T10:17:47;111992.50;;;-145.11;39.98
63033;BME280;49121;38.932;-9.018;2023-02-18T10:19:49;111992.50;;;-145.11;39.98
63033;BME280;49121;38.932;-9.018;2023-02-18T10:21:51;111992.50;;;-145.11;40.47
63033;BME280;49121;38.932;-9.018;2023-02-18T10:26:23;111992.50;;;-145.11;40.20
63033;BME280;49121;38.932;-9.018;2023-02-18T10:28:43;111992.50;;;-145.11;39.97
63033;BME280;49121;38.932;-9.018;2023-02-18T10:31:08;111992.50;;;-145.11;40.01
63033;BME280;49121;38.932;-9.018;2023-02-18T10:35:38;111992.50;;;-145.11;40.01
63033;BME280;49121;38.932;-9.018;2023-02-18T10:49:07;111992.50;;;-145.11;40.60
63033;BME280;49121;38.932;-9.018;2023-02-18T10:51:33;111992.50;;;-145.11;40.50
63033;BME280;49121;38.932;-9.018;2023-02-18T10:53:39;111992.50;;;-145.11;40.08
63033;BME280;49121;38.932;-9.018;2023-02-18T10:55:43;111992.50;;;-145.11;39.05
63033;BME280;49121;38.932;-9.018;2023-02-18T10:57:50;111992.50;;;-145.11;39.32
63033;BME280;49121;38.932;-9.018;2023-02-18T11:00:23;111992.50;;;-145.11;39.34
63033;BME280;49121;38.932;-9.018;2023-02-18T11:02:27;111992.50;;;-145.11;39.09
63033;BME280;49121;38.932;-9.018;2023-02-18T11:04:36;111992.50;;;-145.11;39.04
63033;BME280;49121;38.932;-9.018;2023-02-18T11:13:30;111992.50;;;-145.11;39.50
63033;BME280;49121;38.932;-9.018;2023-02-18T11:15:32;111992.50;;;-145.11;39.32
63033;BME280;49121;38.932;-9.018;2023-02-18T11:17:34;111992.50;;;-145.11;39.62
63033;BME280;49121;38.932;-9.018;2023-02-18T11:19:38;111992.50;;;-145.11;39.26
63033;BME280;49121;38.932;-9.018;2023-02-18T11:21:38;111992.50;;;-145.11;39.71
63033;BME280;49121;38.932;-9.018;2023-02-18T11:23:50;111992.50;;;-145.11;39.81
63033;BME280;49121;38.932;-9.018;2023-02-18T11:25:59;111992.50;;;-145.11;39.41
63033;BME280;49121;38.932;-9.018;2023-02-18T11:28:04;111992.50;;;-145.11;39.32
63033;BME280;49121;38.932;-9.018;2023-02-18T11:30:16;111992.50;;;-145.11;39.10
63033;BME280;49121;38.932;-9.018;2023-02-18T11:32:19;111992.50;;;-145.11;38.69
63033;BME280;49121;38.932;-9.018;2023-02-18T11:34:29;111992.50;;;-145.11;38.77
63033;BME280;49121;38.932;-9.018;2023-02-18T11:36:32;111992.50;;;-145.11;38.43
63033;BME280;49121;38.932;-9.018;2023-02-18T11:40:53;111992.50;;;-145.11;38.08
63033;BME280;49121;38.932;-9.018;2023-02-18T11:43:17;111992.50;;;-145.11;37.17
63033;BME280;49121;38.932;-9.018;2023-02-18T11:45:28;111992.50;;;-145.11;36.99
63033;BME280;49121;38.932;-9.018;2023-02-18T11:47:31;111992.50;;;-145.11;37.86
63033;BME280;49121;38.932;-9.018;2023-02-18T11:49:33;111992.50;;;-145.11;37.84
63033;BME280;49121;38.932;-9.018;2023-02-18T11:51:34;111992.50;;;-145.11;37.70
63033;BME280;49121;38.932;-9.018;2023-02-18T11:53:38;111992.50;;;-145.11;37.88
63033;BME280;49121;38.932;-9.018;2023-02-18T11:55:53;111992.50;;;-145.11;37.89
63033;BME280;49121;38.932;-9.018;2023-02-18T11:57:58;111992.50;;;-145.11;37.65
63033;BME280;49121;38.932;-9.018;2023-02-18T12:00:00;111992.50;;;-145.11;37.79
63033;BME280;49121;38.932;-9.018;2023-02-18T12:09:47;111992.50;;;-145.11;38.00
63033;BME280;49121;38.932;-9.018;2023-02-18T12:11:53;111992.50;;;-145.11;38.23
63033;BME280;49121;38.932;-9.018;2023-02-18T12:13:57;111992.50;;;-145.11;38.12
63033;BME280;49121;38.932;-9.018;2023-02-18T12:25:55;111992.50;;;-145.11;38.62
63033;BME280;49121;38.932;-9.018;2023-02-18T12:32:51;111992.50;;;-145.11;38.73
63033;BME280;49121;38.932;-9.018;2023-02-18T12:37:36;111992.50;;;-145.11;38.68
63033;BME280;49121;38.932;-9.018;2023-02-18T12:44:35;111992.50;;;-145.11;38.92
63033;BME280;49121;38.932;-9.018;2023-02-18T12:51:16;111992.50;;;-145.11;39.74
63033;BME280;49121;38.932;-9.018;2023-02-18T12:58:51;111992.50;;;-145.11;39.96